Time;durP1;ratioP1;P1;durP2;ratioP2;P2;SDS_P1;SDS_P2;PMS_P1;PMS_P2;Temp;Humidity;BMP_temperature;BMP_pressure;BME280_temperature;BME280_humidity;BME280_pressure;Samples;Min_cycle;Max_cycle;Signal;HPM_P1;HPM_P2
2023/04/02 00:00:19;;;;;;;24.80;7.80;;;;;;;42.39;34.26;100963.28;5002296;28;20519;-83
2023/04/02 00:02:57;;;;;;;24.17;9.60;;;;;;;42.18;34.48;100957.06;5012375;28;21004;-81
2023/04/02 00:05:30;;;;;;;18.97;7.23;;;;;;;42.17;34.58;100960.09;5012267;28;20415;-82
2023/04/02 00:08:22;;;;;;;18.63;7.70;;;;;;;42.19;34.53;100953.19;5019508;28;20515;-82
2023/04/02 00:10:55;;;;;;;21.77;7.90;;;;;;;42.25;34.48;100951.88;5012663;28;20432;-84
2023/04/02 00:13:38;;;;;;;20.50;9.50;;;;;;;42.19;34.25;100957.84;5013499;28;20539;-81
2023/04/02 00:16:10;;;;;;;18.50;6.53;;;;;;;42.21;34.21;100964.56;5007309;28;20435;-81
2023/04/02 00:18:43;;;;;;;29.43;14.53;;;;;;;42.23;34.32;100958.75;5011484;28;20508;-82
2023/04/02 00:21:34;;;;;;;26.70;8.30;;;;;;;42.24;33.90;100955.72;4995103;28;20891;-81
2023/04/02 00:24:07;;;;;;;26.67;9.37;;;;;;;42.04;34.77;100951.03;4985210;28;20447;-81
2023/04/02 00:26:37;;;;;;;16.07;7.23;;;;;;;42.13;34.83;100941.66;4994244;28;20416;-83
2023/04/02 00:29:05;;;;;;;30.00;10.17;;;;;;;42.17;35.04;100943.75;4994062;28;20436;-82
2023/04/02 00:31:32;;;;;;;20.93;8.40;;;;;;;42.21;34.99;100937.28;4994702;28;20491;-84
2023/04/02 00:34:01;;;;;;;13.00;6.30;;;;;;;42.37;35.05;100951.13;4994772;28;20500;-83
2023/04/02 00:36:35;;;;;;;25.90;8.73;;;;;;;42.28;34.66;100926.66;4995042;28;20667;-83
2023/04/02 00:39:07;;;;;;;19.77;8.10;;;;;;;42.43;34.74;100943.53;4995136;28;20446;-82
2023/04/02 00:41:37;;;;;;;15.53;5.73;;;;;;;42.18;35.00;100921.63;4998309;28;20810;-83
2023/04/02 00:44:04;;;;;;;19.90;6.37;;;;;;;42.33;34.72;100926.44;5018439;28;20423;-82
2023/04/02 00:46:48;;;;;;;21.73;7.87;;;;;;;42.40;34.69;100921.22;5018452;28;20506;-81
2023/04/02 00:49:24;;;;;;;23.33;8.60;;;;;;;42.31;34.68;100915.09;5018237;28;20542;-81
2023/04/02 00:51:55;;;;;;;21.53;8.57;;;;;;;42.37;34.50;100924.66;5018426;28;20549;-82
2023/04/02 00:54:24;;;;;;;18.97;7.03;;;;;;;42.03;35.25;100912.09;5018307;28;20511;-81
2023/04/02 00:56:54;;;;;;;17.90;6.10;;;;;;;42.26;34.77;100907.09;5018231;28;20431;-83
2023/04/02 00:59:35;;;;;;;21.87;8.10;;;;;;;42.27;34.57;100889.63;5018267;28;20427;-82
2023/04/02 01:02:17;;;;;;;19.20;8.73;;;;;;;42.24;34.96;100893.03;5018700;28;20422;-82
2023/04/02 01:04:52;;;;;;;19.93;7.20;;;;;;;42.30;34.99;100885.44;5018187;28;20419;-82
2023/04/02 01:07:30;;;;;;;21.37;9.13;;;;;;;42.31;34.34;100889.75;5018436;28;20438;-82
2023/04/02 01:10:25;;;;;;;19.17;10.43;;;;;;;42.36;34.75;100881.38;5004452;28;20545;-81
2023/04/02 01:13:00;;;;;;;20.67;8.13;;;;;;;42.27;34.89;100875.19;4981685;28;20463;-82
2023/04/02 01:15:44;;;;;;;23.43;10.57;;;;;;;42.16;34.49;100872.06;4998324;28;20420;-82
2023/04/02 01:18:51;;;;;;;23.10;7.70;;;;;;;42.29;34.79;100873.72;4998330;28;20482;-82
2023/04/02 01:21:55;;;;;;;28.17;7.30;;;;;;;42.34;34.97;100869.97;4920871;29;20431;-81
2023/04/02 01:24:25;;;;;;;22.03;7.63;;;;;;;42.36;34.67;100882.16;4915225;29;20423;-81
2023/04/02 01:26:57;;;;;;;20.37;7.37;;;;;;;42.38;34.35;100879.09;4991451;28;20503;-82
2023/04/02 01:29:27;;;;;;;19.43;7.67;;;;;;;42.28;34.46;100874.84;4997965;28;20811;-81
2023/04/02 01:31:59;;;;;;;30.33;8.57;;;;;;;42.22;34.64;100870.72;4998000;28;20978;-82
2023/04/02 01:34:27;;;;;;;14.50;7.63;;;;;;;42.29;34.40;100879.16;5034638;28;20913;-81
2023/04/02 01:36:58;;;;;;;21.60;7.97;;;;;;;42.30;34.72;100877.25;5017578;28;20510;-82
2023/04/02 01:40:04;;;;;;;19.50;6.70;;;;;;;42.27;34.71;100875.97;5017479;28;20869;-81
2023/04/02 01:42:45;;;;;;;22.20;6.30;;;;;;;42.34;34.41;100868.03;4982971;28;20451;-81
2023/04/02 01:45:14;;;;;;;23.10;7.27;;;;;;;42.33;34.66;100866.47;4997600;28;20927;-82
2023/04/02 01:47:41;;;;;;;21.73;5.97;;;;;;;42.37;34.99;100872.03;4997598;28;20495;-82
2023/04/02 01:50:30;;;;;;;13.10;6.60;;;;;;;42.28;34.83;100863.16;5013762;28;20599;-82
2023/04/02 01:53:03;;;;;;;18.67;6.63;;;;;;;42.21;34.72;100850.06;4993336;28;20997;-82
2023/04/02 01:55:37;;;;;;;22.50;8.40;;;;;;;42.33;34.81;100852.81;4997392;28;20981;-83
2023/04/02 01:58:04;;;;;;;18.70;5.83;;;;;;;42.29;34.68;100849.16;4997478;28;20444;-83
2023/04/02 02:00:31;;;;;;;27.40;7.70;;;;;;;42.30;34.21;100850.78;4997466;28;20440;-83
2023/04/02 02:03:00;;;;;;;16.40;7.50;;;;;;;42.22;34.58;100848.94;5009779;28;20408;-82
2023/04/02 02:05:27;;;;;;;17.63;7.67;;;;;;;42.04;34.98;100825.69;5016815;28;20850;-82
2023/04/02 02:07:56;;;;;;;28.70;9.00;;;;;;;42.14;34.83;100817.88;5016812;28;20416;-81
2023/04/02 02:10:26;;;;;;;23.60;7.37;;;;;;;42.22;34.75;100813.50;5035013;28;20799;-82
2023/04/02 02:12:53;;;;;;;17.60;8.43;;;;;;;42.21;34.60;100809.19;5016743;28;20995;-82
2023/04/02 02:15:21;;;;;;;14.40;7.13;;;;;;;42.25;34.75;100812.03;5016884;28;20412;-81
2023/04/02 02:17:48;;;;;;;15.43;5.93;;;;;;;42.25;34.56;100798.41;5016755;28;20980;-82
2023/04/02 02:20:15;;;;;;;12.00;5.40;;;;;;;42.25;34.34;100796.47;5016748;28;20411;-82
2023/04/02 02:22:47;;;;;;;18.20;7.27;;;;;;;42.17;34.77;100793.81;5016779;28;20965;-82
2023/04/02 02:25:22;;;;;;;16.53;5.90;;;;;;;42.27;34.21;100807.81;5016598;28;20523;-81
2023/04/02 02:28:15;;;;;;;21.03;7.07;;;;;;;42.24;33.82;100805.78;4999913;28;20412;-82
2023/04/02 02:30:57;;;;;;;30.93;7.77;;;;;;;42.25;33.84;100795.69;4996836;28;20408;-83
2023/04/02 02:33:25;;;;;;;21.30;8.20;;;;;;;42.17;34.38;100802.00;5000891;28;20518;-82
2023/04/02 02:36:12;;;;;;;21.87;8.17;;;;;;;42.25;34.14;100803.84;5016358;28;20412;-82
2023/04/02 02:38:50;;;;;;;31.80;8.63;;;;;;;42.30;34.44;100807.16;5016643;28;20515;-82
2023/04/02 02:41:38;;;;;;;20.37;9.00;;;;;;;42.17;33.56;100812.91;5016271;28;20439;-82
2023/04/02 02:44:07;;;;;;;28.40;6.70;;;;;;;42.22;34.04;100810.75;4996723;28;20417;-83
2023/04/02 02:46:37;;;;;;;19.67;5.97;;;;;;;42.20;34.49;100804.88;4996724;28;20413;-84
2023/04/02 02:49:05;;;;;;;17.37;7.47;;;;;;;42.25;34.42;100799.19;4996653;28;20587;-83
2023/04/02 02:51:43;;;;;;;17.30;8.50;;;;;;;42.30;34.55;100803.66;4996589;28;20836;-84
2023/04/02 02:54:10;;;;;;;18.90;6.13;;;;;;;42.25;34.53;100796.47;4996678;28;20408;-82
2023/04/02 02:56:43;;;;;;;19.27;8.87;;;;;;;42.22;34.05;100797.13;4996638;28;20408;-84
2023/04/02 02:59:12;;;;;;;18.73;6.73;;;;;;;42.34;33.95;100807.28;4996766;28;20420;-83
2023/04/02 03:01:38;;;;;;;21.60;6.80;;;;;;;42.29;33.89;100804.75;4996345;28;20401;-84
2023/04/02 03:04:04;;;;;;;20.33;6.77;;;;;;;42.32;34.32;100804.88;4996274;28;20408;-84
2023/04/02 03:06:31;;;;;;;21.17;6.50;;;;;;;42.29;34.25;100802.81;5012962;28;20413;-84
2023/04/02 03:09:32;;;;;;;21.67;8.77;;;;;;;42.28;33.56;100798.50;4998426;28;20423;-84
2023/04/02 03:12:31;;;;;;;18.60;7.23;;;;;;;42.32;33.83;100804.09;5015932;28;20481;-83
2023/04/02 03:15:26;;;;;;;14.43;7.07;;;;;;;42.26;33.73;100789.88;5015759;28;20506;-82
2023/04/02 03:18:01;;;;;;;37.93;8.60;;;;;;;42.19;33.94;100788.84;5015631;28;20422;-83
2023/04/02 03:20:40;;;;;;;15.63;6.37;;;;;;;42.01;34.28;100783.56;5015513;28;21016;-82
2023/04/02 03:23:17;;;;;;;26.60;8.50;;;;;;;41.97;34.27;100792.72;5015521;28;20419;-82
2023/04/02 03:25:58;;;;;;;28.57;10.67;;;;;;;42.00;34.62;100792.06;5016122;28;20422;-82
2023/04/02 03:28:38;;;;;;;16.50;6.53;;;;;;;42.05;34.86;100791.84;5015633;28;20474;-81
2023/04/02 03:31:19;;;;;;;19.80;8.53;;;;;;;42.07;34.92;100786.88;5015536;28;20418;-82
2023/04/02 03:33:50;;;;;;;20.80;8.23;;;;;;;42.08;34.45;100778.34;5006004;28;20511;-82
2023/04/02 03:36:27;;;;;;;16.97;6.50;;;;;;;42.09;35.03;100790.03;4995910;28;20455;-84
2023/04/02 03:39:15;;;;;;;20.57;7.07;;;;;;;42.13;34.58;100786.31;4996079;28;20451;-84
2023/04/02 03:41:47;;;;;;;21.73;6.30;;;;;;;42.19;34.85;100789.66;4996132;28;20440;-82
2023/04/02 03:44:32;;;;;;;23.13;6.97;;;;;;;42.13;35.02;100783.59;4995549;28;20772;-83
2023/04/02 03:47:04;;;;;;;13.63;5.93;;;;;;;42.24;34.45;100781.25;4995565;28;20950;-83
2023/04/02 03:52:55;;;;;;;18.17;7.43;;;;;;;42.21;35.04;100773.75;5027882;28;20450;-83
2023/04/02 03:55:27;;;;;;;20.30;6.90;;;;;;;42.26;34.78;100768.06;5015365;28;20419;-83
2023/04/02 03:58:18;;;;;;;16.07;6.63;;;;;;;42.27;34.62;100782.50;5015477;28;20725;-82
2023/04/02 04:00:53;;;;;;;28.00;7.80;;;;;;;42.25;34.73;100777.41;5015243;28;20400;-82
2023/04/02 04:03:36;;;;;;;23.70;6.47;;;;;;;42.24;34.35;100781.25;5015515;28;20415;-83
2023/04/02 04:06:09;;;;;;;14.60;6.53;;;;;;;42.23;34.52;100778.84;5015113;28;20443;-82
2023/04/02 04:08:43;;;;;;;27.33;6.83;;;;;;;42.10;34.56;100788.91;5015249;28;20446;-82
2023/04/02 04:11:15;;;;;;;21.70;8.63;;;;;;;42.11;34.61;100788.59;5015036;28;20770;-83
2023/04/02 04:13:57;;;;;;;22.43;7.80;;;;;;;42.09;34.78;100793.56;5004646;28;20432;-82
2023/04/02 04:16:31;;;;;;;16.93;7.07;;;;;;;42.14;34.27;100784.38;4994891;28;20453;-83
2023/04/02 04:19:18;;;;;;;23.20;6.53;;;;;;;42.09;34.62;100796.28;4995340;28;20415;-84
2023/04/02 04:21:45;;;;;;;21.53;6.80;;;;;;;42.10;34.36;100797.06;4995243;28;20487;-82
2023/04/02 04:24:20;;;;;;;11.87;6.37;;;;;;;42.13;34.60;100789.03;5013341;28;20463;-83
2023/04/02 04:27:02;;;;;;;15.70;5.63;;;;;;;42.19;34.94;100792.38;4995612;28;20416;-82
2023/04/02 04:29:50;;;;;;;20.67;8.50;;;;;;;42.16;34.77;100784.03;4995004;28;20424;-83
2023/04/02 04:32:48;;;;;;;14.20;6.43;;;;;;;42.18;34.58;100776.38;4995099;28;20470;-83
2023/04/02 04:35:35;;;;;;;17.00;7.10;;;;;;;42.22;34.74;100783.50;4995139;28;20414;-84
2023/04/02 04:38:26;;;;;;;34.13;7.60;;;;;;;42.15;34.67;100788.69;4995216;28;20444;-81
2023/04/02 04:41:38;;;;;;;13.70;6.53;;;;;;;42.19;34.69;100789.66;4995155;28;20409;-83
2023/04/02 04:44:30;;;;;;;23.53;6.47;;;;;;;42.16;34.04;100784.03;4985666;28;20842;-83
2023/04/02 04:47:01;;;;;;;16.43;5.33;;;;;;;42.17;34.48;100789.16;4994721;28;20801;-83
2023/04/02 04:49:34;;;;;;;28.50;6.40;;;;;;;42.14;34.33;100779.72;4994944;28;20558;-84
2023/04/02 04:52:21;;;;;;;16.70;5.40;;;;;;;42.21;34.21;100781.91;4994837;28;20507;-83
2023/04/02 04:54:47;;;;;;;12.80;5.83;;;;;;;42.19;34.48;100776.03;5013441;28;20471;-84
2023/04/02 04:57:35;;;;;;;18.80;8.23;;;;;;;41.98;34.61;100775.25;5014508;28;20465;-83
2023/04/02 05:00:44;;;;;;;29.60;9.27;;;;;;;42.11;33.94;100790.50;5014883;28;20477;-82
2023/04/02 05:03:48;;;;;;;24.90;6.60;;;;;;;41.92;34.29;100791.00;4917435;29;20424;-83
2023/04/02 05:06:23;;;;;;;23.77;7.17;;;;;;;42.02;34.25;100787.88;4975565;28;20413;-82
2023/04/02 05:08:53;;;;;;;22.97;7.03;;;;;;;42.02;34.49;100789.78;4994894;28;20780;-81
2023/04/02 05:11:33;;;;;;;19.50;9.13;;;;;;;42.00;34.37;100781.97;4994746;28;20417;-84
2023/04/02 05:14:17;;;;;;;23.47;10.20;;;;;;;42.05;34.00;100791.84;4994794;28;20416;-84
2023/04/02 05:17:00;;;;;;;20.93;7.53;;;;;;;41.88;34.60;100792.03;4994942;28;20490;-83
2023/04/02 05:19:36;;;;;;;29.43;8.30;;;;;;;41.85;34.88;100796.22;4994608;28;20490;-85
2023/04/02 05:22:41;;;;;;;28.33;7.07;;;;;;;41.87;34.99;100793.97;5009075;28;20917;-85
2023/04/02 05:25:22;;;;;;;26.03;7.13;;;;;;;41.97;34.93;100801.69;4980536;28;20434;-84
2023/04/02 05:27:51;;;;;;;13.37;5.70;;;;;;;41.96;34.46;100804.75;5016541;28;20511;-82
2023/04/02 05:30:33;;;;;;;15.40;6.40;;;;;;;41.98;34.70;100807.94;5017779;28;20434;-82
2023/04/02 05:33:06;;;;;;;27.67;7.40;;;;;;;41.89;34.23;100809.97;5017678;28;20554;-82
2023/04/02 05:35:42;;;;;;;23.87;6.50;;;;;;;41.88;34.37;100803.72;5002231;28;20420;-83
2023/04/02 05:38:21;;;;;;;14.13;6.90;;;;;;;41.90;34.59;100808.84;4998024;28;20455;-82
2023/04/02 05:40:53;;;;;;;17.80;6.20;;;;;;;41.79;34.17;100820.13;5023232;28;20909;-82
2023/04/02 05:43:24;;;;;;;20.87;6.27;;;;;;;41.85;33.94;100818.78;5017679;28;20423;-82
2023/04/02 05:45:58;;;;;;;17.50;5.50;;;;;;;41.74;33.75;100811.34;4999974;28;20517;-82
2023/04/02 05:48:39;;;;;;;28.33;7.90;;;;;;;41.83;34.46;100823.78;5002383;28;20895;-83
2023/04/02 05:51:10;;;;;;;21.67;6.63;;;;;;;41.69;34.11;100822.47;5017610;28;20976;-83
2023/04/02 05:53:53;;;;;;;15.70;5.50;;;;;;;41.66;33.57;100812.22;5017343;28;20871;-84
2023/04/02 05:56:30;;;;;;;20.50;8.90;;;;;;;41.68;34.34;100818.13;5009925;28;20503;-82
2023/04/02 05:59:00;;;;;;;39.10;8.57;;;;;;;41.78;34.19;100829.44;4997837;28;20989;-82
2023/04/02 06:01:48;;;;;;;24.60;6.80;;;;;;;41.84;34.23;100833.56;4997663;28;20417;-83
2023/04/02 06:04:24;;;;;;;26.50;9.27;;;;;;;41.83;34.79;100834.69;4997601;28;20444;-84
2023/04/02 06:07:15;;;;;;;16.67;6.03;;;;;;;41.72;34.76;100841.66;5006149;28;20425;-85
2023/04/02 06:09:53;;;;;;;17.60;8.87;;;;;;;41.92;34.81;100858.34;5017128;28;20505;-83
2023/04/02 06:12:31;;;;;;;21.13;7.67;;;;;;;41.85;34.54;100856.16;5016822;28;20459;-83
2023/04/02 06:14:57;;;;;;;14.33;5.50;;;;;;;41.86;34.60;100849.56;5016902;28;20455;-83
2023/04/02 06:17:23;;;;;;;21.40;8.20;;;;;;;41.86;33.93;100860.47;5014078;28;20456;-83
2023/04/02 06:19:50;;;;;;;17.03;5.80;;;;;;;41.73;34.54;100859.56;4997267;28;20463;-83
2023/04/02 06:22:22;;;;;;;18.13;5.43;;;;;;;41.82;34.32;100857.63;4997352;28;20507;-82
2023/04/02 06:24:55;;;;;;;23.27;8.30;;;;;;;41.82;34.42;100862.28;4997368;28;20868;-82
2023/04/02 06:27:23;;;;;;;23.03;5.93;;;;;;;41.83;34.50;100856.50;4998727;28;21013;-82
2023/04/02 06:29:52;;;;;;;21.80;7.40;;;;;;;41.82;34.88;100862.28;5017523;28;20494;-83
2023/04/02 06:32:22;;;;;;;26.33;5.97;;;;;;;41.63;34.91;100872.81;5034497;28;20494;-83
2023/04/02 06:34:48;;;;;;;22.83;7.50;;;;;;;41.79;35.03;100871.09;5016715;28;20403;-82
2023/04/02 06:37:26;;;;;;;18.27;5.90;;;;;;;41.83;34.70;100881.00;5016553;28;20431;-82
2023/04/02 06:39:53;;;;;;;18.87;6.60;;;;;;;41.85;34.61;100886.91;5004951;28;20416;-83
2023/04/02 06:42:25;;;;;;;31.43;5.90;;;;;;;41.90;34.76;100890.56;4996831;28;20436;-83
2023/04/02 06:44:51;;;;;;;19.27;9.50;;;;;;;41.82;34.84;100894.97;5014927;28;20421;-82
2023/04/02 06:47:31;;;;;;;18.90;6.83;;;;;;;41.97;34.54;100907.19;4996876;28;20420;-82
2023/04/02 06:50:06;;;;;;;25.17;6.30;;;;;;;41.93;34.64;100906.25;4989709;28;20472;-83
2023/04/02 06:52:47;;;;;;;16.30;6.30;;;;;;;41.77;34.58;100914.22;4997192;28;20969;-83
2023/04/02 06:55:19;;;;;;;19.27;7.50;;;;;;;41.88;34.83;100917.38;5014598;28;20424;-82
2023/04/02 06:57:46;;;;;;;19.83;5.90;;;;;;;42.01;34.60;100927.19;4996567;28;20423;-82
2023/04/02 07:00:33;;;;;;;14.40;5.97;;;;;;;41.98;34.51;100925.13;4982835;28;20440;-82
2023/04/02 07:03:01;;;;;;;16.87;5.77;;;;;;;42.09;34.56;100931.75;4977061;28;20420;-82
2023/04/02 07:05:27;;;;;;;16.87;5.13;;;;;;;42.09;34.36;100926.31;4977038;28;20409;-82
2023/04/02 07:07:53;;;;;;;15.37;5.70;;;;;;;42.01;34.56;100924.47;4976954;28;20424;-81
2023/04/02 07:10:19;;;;;;;22.63;5.60;;;;;;;42.09;34.67;100938.00;4990768;28;20440;-83
2023/04/02 07:12:46;;;;;;;22.47;6.20;;;;;;;42.11;34.75;100940.38;4996067;28;20607;-83
2023/04/02 07:15:18;;;;;;;13.60;7.17;;;;;;;42.03;34.38;100933.88;4995729;28;20247;-83
2023/04/02 07:17:45;;;;;;;19.37;9.83;;;;;;;42.05;34.47;100949.91;4996492;28;21054;-83
2023/04/02 07:20:32;;;;;;;16.97;7.13;;;;;;;42.04;34.97;100951.81;5013658;28;20428;-82
2023/04/02 07:22:58;;;;;;;17.40;6.30;;;;;;;42.16;34.53;100953.84;4996156;28;20500;-82
2023/04/02 07:25:26;;;;;;;19.30;5.80;;;;;;;42.23;34.51;100961.50;4996556;28;20503;-82
2023/04/02 07:27:52;;;;;;;19.63;6.57;;;;;;;42.28;34.47;100964.00;5013363;28;20419;-82
2023/04/02 07:30:19;;;;;;;19.10;7.30;;;;;;;42.22;34.55;100966.16;4995368;28;20958;-81
2023/04/02 07:32:45;;;;;;;15.13;6.20;;;;;;;42.18;34.75;100975.34;4995952;28;20938;-82
2023/04/02 07:35:11;;;;;;;18.90;7.10;;;;;;;42.18;34.54;100967.97;4996056;28;20417;-83
2023/04/02 07:37:38;;;;;;;14.60;5.27;;;;;;;42.19;34.22;100980.47;4986265;28;20449;-82
2023/04/02 07:40:16;;;;;;;18.67;6.00;;;;;;;42.20;34.64;100973.06;4986131;28;20776;-83
2023/04/02 07:42:41;;;;;;;20.17;7.70;;;;;;;42.14;34.39;100967.00;4981361;28;20966;-82
2023/04/02 07:45:08;;;;;;;17.10;6.33;;;;;;;42.24;33.91;100987.66;4976298;28;20429;-83
2023/04/02 07:47:34;;;;;;;24.40;7.10;;;;;;;42.21;34.26;100982.84;4978329;28;20907;-82
2023/04/02 07:50:00;;;;;;;17.27;6.63;;;;;;;42.24;33.76;100988.44;5008025;28;20625;-82
2023/04/02 07:52:26;;;;;;;17.80;6.47;;;;;;;42.16;33.73;100989.28;5014917;28;20486;-84
2023/04/02 07:54:52;;;;;;;25.67;7.23;;;;;;;42.16;34.05;100989.28;5011464;28;20681;-83
2023/04/02 07:57:18;;;;;;;24.53;7.60;;;;;;;42.14;34.44;100992.31;5015059;28;20196;-83
2023/04/02 07:59:44;;;;;;;24.90;8.50;;;;;;;42.29;34.35;100990.94;5005610;28;20432;-82
2023/04/02 08:02:20;;;;;;;29.73;6.57;;;;;;;42.37;34.43;101002.94;4995444;28;20487;-83
2023/04/02 08:04:53;;;;;;;27.20;6.87;;;;;;;42.32;34.32;101006.63;5005889;28;20442;-84
2023/04/02 08:07:19;;;;;;;21.73;6.40;;;;;;;42.40;34.01;101013.16;5012016;28;20411;-85
2023/04/02 08:09:45;;;;;;;14.73;4.57;;;;;;;42.35;33.70;101019.59;5005282;28;20436;-85
2023/04/02 08:12:14;;;;;;;19.97;4.40;;;;;;;42.35;34.11;101025.03;4995137;28;20456;-83
2023/04/02 08:14:40;;;;;;;17.70;5.87;;;;;;;42.36;34.10;101015.75;4995279;28;20181;-84
2023/04/02 08:17:06;;;;;;;15.80;5.13;;;;;;;42.25;34.36;101013.78;4995182;28;20478;-87
2023/04/02 08:19:33;;;;;;;21.60;6.37;;;;;;;42.28;33.89;101016.59;5002198;28;20655;-84
2023/04/02 08:21:59;;;;;;;19.97;6.67;;;;;;;42.38;34.15;101032.56;5014997;28;20408;-84
2023/04/02 08:24:25;;;;;;;15.30;4.33;;;;;;;42.41;33.69;101009.28;5013567;28;20411;-86
2023/04/02 08:26:52;;;;;;;11.60;5.60;;;;;;;42.48;34.18;101025.94;5012657;28;20451;-85
2023/04/02 08:29:19;;;;;;;20.77;8.00;;;;;;;42.55;33.69;101028.91;5008004;28;20512;-85
2023/04/02 08:31:45;;;;;;;16.30;5.77;;;;;;;42.27;34.14;101028.66;5011571;28;21012;-86
2023/04/02 08:34:11;;;;;;;24.13;6.70;;;;;;;42.44;33.85;101040.56;5012058;28;20944;-84
2023/04/02 08:36:40;;;;;;;19.70;6.30;;;;;;;42.53;33.38;101039.34;5012339;28;20416;-85
2023/04/02 08:39:10;;;;;;;22.93;7.50;;;;;;;42.38;33.57;101040.75;5012194;28;20953;-83
2023/04/02 08:41:57;;;;;;;21.80;7.10;;;;;;;42.51;33.77;101038.88;5010639;28;20503;-82
2023/04/02 08:44:41;;;;;;;23.90;7.03;;;;;;;42.47;33.98;101035.22;5012881;28;20786;-83
2023/04/02 08:47:09;;;;;;;17.63;7.50;;;;;;;42.50;33.55;101039.22;5030716;28;20770;-82
2023/04/02 08:49:54;;;;;;;23.43;5.93;;;;;;;42.63;33.28;101040.91;5030834;28;20505;-82
2023/04/02 08:52:24;;;;;;;23.53;8.77;;;;;;;42.59;33.80;101045.41;5013247;28;20443;-85
2023/04/02 08:54:50;;;;;;;16.50;5.83;;;;;;;42.56;33.60;101035.97;5011489;28;20494;-86
2023/04/02 08:57:38;;;;;;;20.07;6.80;;;;;;;42.67;34.04;101047.28;5016160;28;20442;-84
2023/04/02 09:02:54;;;;;;;15.07;5.00;;;;;;;42.73;33.65;101053.34;5079853;28;21001;-82
2023/04/02 09:05:32;;;;;;;11.57;5.70;;;;;;;42.70;33.05;101040.34;5082475;28;21017;-85
2023/04/02 09:08:04;;;;;;;23.37;6.43;;;;;;;42.67;33.17;101050.00;5084828;28;21058;-83
2023/04/02 09:10:40;;;;;;;13.20;4.73;;;;;;;42.72;32.85;101063.44;5074498;28;20465;-85
2023/04/02 09:13:17;;;;;;;17.43;5.50;;;;;;;42.75;32.76;101053.78;5066257;28;20464;-83
2023/04/02 09:15:43;;;;;;;22.47;5.50;;;;;;;42.76;32.67;101058.09;5076781;28;20432;-83
2023/04/02 09:18:16;;;;;;;19.50;6.20;;;;;;;42.57;33.15;101051.22;5077439;28;21116;-83
2023/04/02 09:20:43;;;;;;;18.97;5.37;;;;;;;42.68;33.17;101057.06;5079500;28;20408;-83
2023/04/02 09:23:22;;;;;;;18.03;4.53;;;;;;;42.70;33.11;101043.88;5090373;28;20422;-85
2023/04/02 09:25:51;;;;;;;11.70;6.00;;;;;;;42.74;32.35;101050.25;5076229;28;20527;-84
2023/04/02 09:28:19;;;;;;;14.87;6.20;;;;;;;42.84;32.76;101054.50;5075695;28;20424;-85
2023/04/02 09:31:06;;;;;;;13.73;5.20;;;;;;;42.80;32.39;101048.94;5095814;28;20408;-83
2023/04/02 09:33:44;;;;;;;21.97;6.97;;;;;;;42.82;32.51;101057.56;5081865;28;20500;-84
2023/04/02 09:36:38;;;;;;;17.00;6.50;;;;;;;42.79;32.40;101047.34;5080212;28;20515;-86
2023/04/02 09:39:17;;;;;;;23.63;6.27;;;;;;;42.67;33.13;101046.50;5070911;28;20471;-85
2023/04/02 09:41:45;;;;;;;19.33;5.80;;;;;;;42.66;33.02;101040.22;5080027;28;20421;-82
2023/04/02 09:44:29;;;;;;;14.57;3.93;;;;;;;42.84;32.77;101047.09;5093560;28;20417;-84
2023/04/02 09:46:58;;;;;;;17.77;4.83;;;;;;;42.90;33.31;101044.97;5075304;28;20431;-83
2023/04/02 09:49:31;;;;;;;14.93;6.77;;;;;;;42.87;32.84;101049.16;5087540;28;20416;-83
2023/04/02 09:52:21;;;;;;;14.97;5.13;;;;;;;42.93;32.77;101052.47;5078739;28;20456;-82
2023/04/02 09:55:27;;;;;;;14.40;4.90;;;;;;;42.83;32.88;101036.53;5100365;28;20982;-83
2023/04/02 09:58:26;;;;;;;28.27;8.57;;;;;;;42.87;32.88;101038.25;4985686;28;20841;-84
2023/04/02 10:00:53;;;;;;;18.03;5.50;;;;;;;42.86;33.05;101024.94;4950922;28;21034;-83
2023/04/02 10:03:22;;;;;;;15.73;7.67;;;;;;;42.95;32.68;101019.41;5036523;28;20943;-83
2023/04/02 10:06:02;;;;;;;20.73;6.83;;;;;;;43.03;32.56;101029.44;5064928;28;20437;-83
2023/04/02 10:08:29;;;;;;;21.97;6.70;;;;;;;42.97;32.75;101025.31;5056055;28;20513;-83
2023/04/02 10:10:58;;;;;;;15.23;6.33;;;;;;;42.85;33.12;101015.19;5067749;28;20974;-82
2023/04/02 10:13:55;;;;;;;13.93;5.80;;;;;;;42.96;32.73;101018.25;5060815;28;20457;-82
2023/04/02 10:16:31;;;;;;;16.63;5.20;;;;;;;43.02;32.94;101017.72;5064910;28;20860;-82
2023/04/02 10:19:05;;;;;;;17.50;6.50;;;;;;;42.93;33.42;101015.06;5065279;28;20787;-82
2023/04/02 10:21:36;;;;;;;19.20;5.40;;;;;;;42.97;33.12;101020.66;5069337;28;20417;-82
2023/04/02 10:24:09;;;;;;;17.70;6.57;;;;;;;43.03;33.17;101010.34;5060004;28;20495;-82
2023/04/02 10:26:58;;;;;;;18.40;6.33;;;;;;;43.01;33.09;101016.13;5067896;28;20474;-82
2023/04/02 10:30:02;;;;;;;16.90;4.83;;;;;;;43.02;33.51;101020.47;5064392;28;20827;-83
2023/04/02 10:32:28;;;;;;;10.60;4.83;;;;;;;43.06;33.30;101017.84;5074182;28;20540;-84
2023/04/02 10:35:20;;;;;;;15.87;6.23;;;;;;;42.97;33.27;100998.84;5055217;28;20508;-83
2023/04/02 10:37:46;;;;;;;17.40;7.53;;;;;;;43.08;33.32;101002.72;5070578;28;20190;-81
2023/04/02 10:40:18;;;;;;;17.30;6.03;;;;;;;43.12;33.25;101009.09;5060576;28;20417;-82
2023/04/02 10:42:55;;;;;;;21.23;7.13;;;;;;;43.12;33.20;100997.41;5062215;28;20687;-84
2023/04/02 10:45:37;;;;;;;19.30;5.17;;;;;;;43.18;32.95;101005.03;5068463;28;20460;-83
2023/04/02 10:48:24;;;;;;;17.67;5.80;;;;;;;43.04;33.19;100998.31;5066377;28;20422;-86
2023/04/02 10:51:12;;;;;;;11.97;4.80;;;;;;;43.02;33.13;100987.69;5068202;28;20488;-81
2023/04/02 10:54:20;;;;;;;19.33;7.27;;;;;;;43.12;32.70;100991.94;5063235;28;20469;-81
2023/04/02 10:56:48;;;;;;;10.33;4.13;;;;;;;43.05;32.66;100978.06;4986133;28;20474;-81
2023/04/02 10:59:33;;;;;;;15.77;4.77;;;;;;;43.06;32.91;100976.91;4990809;28;20530;-82
2023/04/02 11:02:03;;;;;;;20.50;6.43;;;;;;;42.93;33.41;100982.31;5038572;28;20468;-81
2023/04/02 11:04:41;;;;;;;18.13;5.90;;;;;;;42.87;32.88;100971.97;5068149;28;20938;-81
2023/04/02 11:07:23;;;;;;;16.80;6.10;;;;;;;42.85;32.78;100964.13;5055211;28;20856;-81
2023/04/02 11:09:53;;;;;;;14.27;5.93;;;;;;;42.88;32.73;100965.38;5060605;28;20417;-80
2023/04/02 11:12:42;;;;;;;17.67;5.57;;;;;;;42.85;33.42;100964.13;5054412;28;20540;-81
2023/04/02 11:15:16;;;;;;;16.90;5.40;;;;;;;42.91;32.82;100957.31;5060014;28;20516;-80
2023/04/02 11:17:44;;;;;;;21.73;6.37;;;;;;;43.04;32.65;100954.63;5059352;28;20512;-81
2023/04/02 11:20:43;;;;;;;20.77;6.07;;;;;;;42.86;33.01;100943.88;5072308;28;20443;-81
2023/04/02 11:23:11;;;;;;;19.17;5.07;;;;;;;42.92;32.92;100945.25;5071414;28;20428;-81
2023/04/02 11:25:37;;;;;;;19.53;6.43;;;;;;;42.91;32.50;100935.47;5066940;28;20472;-81
2023/04/02 11:28:25;;;;;;;20.20;6.40;;;;;;;42.82;32.90;100937.50;5055043;28;20447;-81
2023/04/02 11:30:52;;;;;;;18.80;6.57;;;;;;;42.86;32.88;100919.34;5053810;28;20437;-81
2023/04/02 11:33:32;;;;;;;14.57;6.13;;;;;;;42.85;32.98;100923.19;5054546;28;20446;-81
2023/04/02 11:35:58;;;;;;;16.40;5.77;;;;;;;43.01;33.20;100917.88;5071413;28;20808;-81
2023/04/02 11:38:24;;;;;;;19.97;5.63;;;;;;;43.11;32.71;100925.63;5054232;28;20599;-82
2023/04/02 11:40:55;;;;;;;18.07;6.07;;;;;;;43.05;32.79;100912.56;5068026;28;20901;-82
2023/04/02 11:43:34;;;;;;;14.30;5.53;;;;;;;43.00;32.94;100907.31;5056600;28;20425;-81
2023/04/02 11:46:14;;;;;;;13.90;5.50;;;;;;;43.11;32.41;100908.47;5060317;28;20433;-81
2023/04/02 11:48:40;;;;;;;20.20;5.27;;;;;;;43.13;32.68;100893.31;5067844;28;20460;-84
2023/04/02 11:51:22;;;;;;;15.40;5.40;;;;;;;42.92;32.72;100898.88;5067868;28;20406;-81
2023/04/02 11:53:53;;;;;;;21.93;5.90;;;;;;;42.86;32.68;100866.69;5054522;28;20478;-81
2023/04/02 11:56:47;;;;;;;27.60;6.97;;;;;;;43.11;33.17;100883.88;5061970;28;20430;-83
2023/04/02 11:59:43;;;;;;;12.50;5.03;;;;;;;43.17;33.17;100888.78;5051839;28;20430;-81
2023/04/02 12:02:26;;;;;;;19.60;6.03;;;;;;;43.17;32.80;100877.06;5063434;28;20572;-81